Kezdőlap
METAR-TAF:

METAR-TAF

Repülőterek :

Tortola, Brit Virgin-szigetek

földrajzi szélesség: 18-27N, földrajzi hosszúság: 064-32W, magasság: 4 m

Jelenlegi meteorológiai megfigyelések

A jelentés 3 órával és 2 perccel ezelõtt készült, 02:00 UTC
Kelet-északkeleti szél 8 kt
Hőmérséklet 29°C
Páratartalom 79%
Légköri nyomás 1017 hPa
Látótávolság: 16.1 km
Szórványos felhőzet 1900 lábon

METAR: TUPJ 130200Z 07008KT 10SM SCT019 29/25 A3002 RMK Q1016 VIS16KM

Idő: 01:02 (05:02 UTC)

Előrejelzés

A jelentés 6 órával és 2 perccel ezelõtt készült, 23:00 UTC
Az előrejelzés 13-én 00 óra UTC és 13-én 24 óra UTC között érvényes
Keleti szél 8 kt
Látótávolság 10 km, vagy több
Szórványos felhőzet 2000 lábon
Valószínűség 30% :
13-én 10 óra UTC és 13-én 20 óra UTC között ideiglenes
záporok,

TAF: TUPJ 122300Z 1300/1324 09008KT 9999 SCT020 PROB30 TEMPO 1310/1320 SHRA

Meteorológiai megfigyelések és előrejelzések több, mint 4000 repülőtéren (METAR és TAF jelentéseket).

A térképen piros és sárga pontok jelzik az elérhető meteorológiai állomásokat.

Mozgassa az egeret a pont fölött, hogy megjelenjen az állomás neve.

Azután kattintson az időjárási megfigyelések és előrejelzések megtekintéséhez.

A térkép megváltoztatása: kattintson a fekete keresztel jelölt zöld gombra ráközelítéshez, a vonallal jelölt zöld gombra távolításhoz, vagy a zöld nyilakra a szomszédos térképek eléréséhez.


METAR-TAF: